DAL8545 KDCA-KLGA
Flight info
| Callsign | DAL8545 |
|---|---|
| Flight time | 0h 48m |
| Altitude | 25000 |
| Route | DOCTR5 AGARD DCT SPEAK PROUD2 |
| Aircraft | A319/M-VGD/C |
Departure
| Time | 2026-04-26 01:16 |
|---|---|
| Airport | Ronald Reagan Washington National Airport (KDCA) |
Arrival
| Time | 2026-04-26 02:04 |
|---|---|
| Airport | LaGuardia Airport (KLGA) |
| Time | Latitude | Longitude | Altitude | Speed | Heading |
|---|---|---|---|---|---|
| 2026-04-26 00:56 | 38.84680 | -77.04193 | 25 ft | 0 kts | 297° |
| 2026-04-26 01:06 | 38.84681 | -77.04194 | 26 ft | 0 kts | 297° |
| 2026-04-26 01:06 | 38.84679 | -77.04190 | 30 ft | 0 kts | 297° |
| 2026-04-26 01:07 | 38.84678 | -77.04187 | 30 ft | 2 kts | 297° |
| 2026-04-26 01:07 | 38.84671 | -77.04170 | 30 ft | 2 kts | 297° |
| 2026-04-26 01:07 | 38.84664 | -77.04151 | 31 ft | 2 kts | 309° |
| 2026-04-26 01:08 | 38.84651 | -77.04140 | 28 ft | 2 kts | 25° |
| 2026-04-26 01:08 | 38.84640 | -77.04153 | 26 ft | 2 kts | 89° |
| 2026-04-26 01:08 | 38.84640 | -77.04157 | 26 ft | 0 kts | 95° |
| 2026-04-26 01:09 | 38.84638 | -77.04151 | 26 ft | 3 kts | 112° |
| 2026-04-26 01:10 | 38.84603 | -77.04092 | 27 ft | 10 kts | 109° |
| 2026-04-26 01:10 | 38.84626 | -77.03996 | 28 ft | 12 kts | 36° |
| 2026-04-26 01:10 | 38.84718 | -77.03978 | 24 ft | 15 kts | 16° |
| 2026-04-26 01:10 | 38.84835 | -77.03942 | 22 ft | 19 kts | 0° |
| 2026-04-26 01:11 | 38.84985 | -77.03957 | 21 ft | 23 kts | 358° |
| 2026-04-26 01:11 | 38.85146 | -77.03973 | 22 ft | 23 kts | 354° |
| 2026-04-26 01:11 | 38.85309 | -77.03992 | 23 ft | 24 kts | 356° |
| 2026-04-26 01:11 | 38.85470 | -77.04012 | 27 ft | 23 kts | 354° |
| 2026-04-26 01:12 | 38.85588 | -77.04039 | 28 ft | 15 kts | 352° |
| 2026-04-26 01:12 | 38.85608 | -77.04027 | 28 ft | 3 kts | 96° |
| 2026-04-26 01:12 | 38.85615 | -77.03982 | 28 ft | 8 kts | 56° |
| 2026-04-26 01:12 | 38.85681 | -77.03969 | 28 ft | 12 kts | 353° |
| 2026-04-26 01:13 | 38.85772 | -77.03982 | 28 ft | 15 kts | 353° |
| 2026-04-26 01:13 | 38.85886 | -77.03992 | 27 ft | 18 kts | 356° |
| 2026-04-26 01:13 | 38.86012 | -77.03985 | 30 ft | 2 kts | 12° |
| 2026-04-26 01:14 | 38.86027 | -77.03981 | 27 ft | 6 kts | 13° |
| 2026-04-26 01:15 | 38.86084 | -77.03924 | 24 ft | 15 kts | 68° |
| 2026-04-26 01:15 | 38.86041 | -77.03868 | 24 ft | 11 kts | 173° |
| 2026-04-26 01:15 | 38.85748 | -77.03839 | 29 ft | 99 kts | 175° |
| 2026-04-26 01:15 | 38.84744 | -77.03755 | 398 ft | 165 kts | 175° |
| 2026-04-26 01:16 | 38.83545 | -77.03689 | 1386 ft | 176 kts | 175° |
| 2026-04-26 01:16 | 38.82332 | -77.03505 | 2360 ft | 181 kts | 170° |
| 2026-04-26 01:16 | 38.81026 | -77.03200 | 3086 ft | 197 kts | 170° |
| 2026-04-26 01:16 | 38.79622 | -77.02863 | 3812 ft | 215 kts | 171° |
| 2026-04-26 01:17 | 38.78070 | -77.02467 | 4572 ft | 240 kts | 166° |
| 2026-04-26 01:17 | 38.76594 | -77.01337 | 5701 ft | 257 kts | 138° |
| 2026-04-26 01:17 | 38.75552 | -76.99383 | 6741 ft | 280 kts | 114° |
| 2026-04-26 01:17 | 38.75223 | -76.96859 | 7786 ft | 294 kts | 88° |
| 2026-04-26 01:18 | 38.75572 | -76.94229 | 9095 ft | 299 kts | 70° |
| 2026-04-26 01:18 | 38.76476 | -76.91822 | 10329 ft | 305 kts | 55° |
| 2026-04-26 01:18 | 38.77912 | -76.89717 | 11112 ft | 322 kts | 37° |
| 2026-04-26 01:18 | 38.79767 | -76.88139 | 12162 ft | 327 kts | 27° |
| 2026-04-26 01:19 | 38.81739 | -76.86634 | 13301 ft | 333 kts | 27° |
| 2026-04-26 01:19 | 38.83763 | -76.85072 | 14387 ft | 338 kts | 28° |
| 2026-04-26 01:19 | 38.85648 | -76.83176 | 15294 ft | 352 kts | 41° |
| 2026-04-26 01:19 | 38.87182 | -76.80705 | 16200 ft | 363 kts | 56° |
| 2026-04-26 01:20 | 38.88365 | -76.77768 | 16775 ft | 370 kts | 63° |
| 2026-04-26 01:20 | 38.89476 | -76.74777 | 17236 ft | 372 kts | 63° |
| 2026-04-26 01:20 | 38.90597 | -76.71768 | 17706 ft | 375 kts | 63° |
| 2026-04-26 01:20 | 38.91732 | -76.68731 | 18187 ft | 379 kts | 63° |
| 2026-04-26 01:21 | 38.92878 | -76.65670 | 18638 ft | 382 kts | 63° |
| 2026-04-26 01:21 | 38.94037 | -76.62580 | 19047 ft | 385 kts | 63° |
| 2026-04-26 01:21 | 38.95177 | -76.59454 | 19491 ft | 388 kts | 64° |
| 2026-04-26 01:21 | 38.96260 | -76.56259 | 19910 ft | 391 kts | 66° |
| 2026-04-26 01:22 | 38.97308 | -76.53021 | 20343 ft | 394 kts | 66° |
| 2026-04-26 01:22 | 38.97994 | -76.50852 | 20636 ft | 396 kts | 67° |
| 2026-04-26 01:22 | 38.99032 | -76.47559 | 21064 ft | 398 kts | 67° |
| 2026-04-26 01:22 | 39.00081 | -76.44250 | 21519 ft | 401 kts | 67° |
| 2026-04-26 01:23 | 39.00952 | -76.40836 | 22000 ft | 405 kts | 76° |
| 2026-04-26 01:23 | 39.01411 | -76.37235 | 22471 ft | 410 kts | 83° |
| 2026-04-26 01:23 | 39.01769 | -76.33581 | 22941 ft | 414 kts | 83° |
| 2026-04-26 01:23 | 39.02129 | -76.29890 | 23424 ft | 418 kts | 83° |
| 2026-04-26 01:24 | 39.02492 | -76.26153 | 23853 ft | 421 kts | 83° |
| 2026-04-26 01:24 | 39.02768 | -76.23309 | 24165 ft | 423 kts | 83° |
| 2026-04-26 01:24 | 39.03077 | -76.20143 | 24518 ft | 426 kts | 83° |
| 2026-04-26 01:24 | 39.03437 | -76.16465 | 24859 ft | 429 kts | 83° |
| 2026-04-26 01:25 | 39.03799 | -76.12753 | 24954 ft | 427 kts | 84° |
| 2026-04-26 01:25 | 39.04161 | -76.09046 | 24981 ft | 408 kts | 84° |
| 2026-04-26 01:25 | 39.04485 | -76.05505 | 24980 ft | 388 kts | 85° |
| 2026-04-26 01:25 | 39.04703 | -76.02111 | 24981 ft | 377 kts | 87° |
| 2026-04-26 01:26 | 39.04849 | -75.98762 | 24982 ft | 373 kts | 89° |
| 2026-04-26 01:26 | 39.04964 | -75.95434 | 24982 ft | 372 kts | 89° |
| 2026-04-26 01:26 | 39.05075 | -75.92108 | 24989 ft | 372 kts | 89° |
| 2026-04-26 01:26 | 39.05195 | -75.88783 | 24988 ft | 372 kts | 88° |
| 2026-04-26 01:27 | 39.05326 | -75.85463 | 24987 ft | 372 kts | 88° |
| 2026-04-26 01:27 | 39.05469 | -75.82142 | 24986 ft | 372 kts | 88° |
| 2026-04-26 01:27 | 39.05694 | -75.78833 | 24988 ft | 372 kts | 81° |
| 2026-04-26 01:27 | 39.06392 | -75.75634 | 24993 ft | 371 kts | 67° |
| 2026-04-26 01:28 | 39.07588 | -75.72675 | 24897 ft | 382 kts | 55° |
| 2026-04-26 01:28 | 39.09297 | -75.69997 | 24678 ft | 389 kts | 43° |
| 2026-04-26 01:28 | 39.11191 | -75.67500 | 24444 ft | 391 kts | 43° |
| 2026-04-26 01:28 | 39.12614 | -75.65616 | 24260 ft | 390 kts | 44° |
| 2026-04-26 01:29 | 39.14430 | -75.63203 | 24060 ft | 389 kts | 43° |
| 2026-04-26 01:29 | 39.16316 | -75.60701 | 23918 ft | 388 kts | 43° |
| 2026-04-26 01:29 | 39.18207 | -75.58191 | 24000 ft | 391 kts | 43° |
| 2026-04-26 01:29 | 39.20102 | -75.55677 | 23988 ft | 391 kts | 43° |
| 2026-04-26 01:30 | 39.21994 | -75.53163 | 23987 ft | 391 kts | 43° |
| 2026-04-26 01:30 | 39.24022 | -75.50841 | 23954 ft | 389 kts | 33° |
| 2026-04-26 01:30 | 39.26235 | -75.48857 | 23734 ft | 386 kts | 31° |
| 2026-04-26 01:30 | 39.28445 | -75.46898 | 23493 ft | 384 kts | 31° |
| 2026-04-26 01:31 | 39.30646 | -75.44958 | 23227 ft | 383 kts | 31° |
| 2026-04-26 01:31 | 39.32839 | -75.43023 | 22964 ft | 380 kts | 31° |
| 2026-04-26 01:31 | 39.35020 | -75.41095 | 22712 ft | 379 kts | 31° |
| 2026-04-26 01:31 | 39.37187 | -75.39170 | 22464 ft | 377 kts | 31° |
| 2026-04-26 01:32 | 39.39343 | -75.37252 | 22202 ft | 375 kts | 31° |
| 2026-04-26 01:32 | 39.41484 | -75.35345 | 21954 ft | 373 kts | 31° |
| 2026-04-26 01:32 | 39.43612 | -75.33449 | 21699 ft | 370 kts | 31° |
| 2026-04-26 01:32 | 39.45726 | -75.31561 | 21452 ft | 368 kts | 31° |
| 2026-04-26 01:33 | 39.47832 | -75.29676 | 21201 ft | 366 kts | 31° |
| 2026-04-26 01:33 | 39.49923 | -75.27808 | 20952 ft | 364 kts | 31° |
| 2026-04-26 01:33 | 39.52002 | -75.25939 | 20703 ft | 363 kts | 31° |
| 2026-04-26 01:33 | 39.54053 | -75.24047 | 20469 ft | 361 kts | 31° |
| 2026-04-26 01:34 | 39.56057 | -75.22167 | 20231 ft | 359 kts | 32° |
| 2026-04-26 01:34 | 39.58097 | -75.20237 | 19991 ft | 357 kts | 32° |
| 2026-04-26 01:34 | 39.60098 | -75.18340 | 19751 ft | 355 kts | 32° |
| 2026-04-26 01:34 | 39.62088 | -75.16454 | 19521 ft | 353 kts | 32° |
| 2026-04-26 01:35 | 39.64066 | -75.14583 | 19285 ft | 351 kts | 32° |
| 2026-04-26 01:35 | 39.66038 | -75.12722 | 19049 ft | 349 kts | 31° |
| 2026-04-26 01:35 | 39.68001 | -75.10880 | 18821 ft | 347 kts | 31° |
| 2026-04-26 01:35 | 39.69982 | -75.09108 | 18599 ft | 344 kts | 29° |
| 2026-04-26 01:36 | 39.71974 | -75.07397 | 18366 ft | 342 kts | 28° |
| 2026-04-26 01:36 | 39.73962 | -75.05720 | 18103 ft | 340 kts | 28° |
| 2026-04-26 01:36 | 39.75945 | -75.04049 | 17834 ft | 339 kts | 28° |
| 2026-04-26 01:37 | 39.79883 | -75.00705 | 17311 ft | 337 kts | 29° |
| 2026-04-26 01:37 | 39.81809 | -74.99053 | 17107 ft | 335 kts | 29° |
| 2026-04-26 01:37 | 39.83774 | -74.97358 | 17061 ft | 335 kts | 30° |
| 2026-04-26 01:37 | 39.85713 | -74.95676 | 17081 ft | 335 kts | 30° |
| 2026-04-26 01:38 | 39.87637 | -74.93959 | 17081 ft | 335 kts | 31° |
| 2026-04-26 01:38 | 39.89551 | -74.92217 | 17083 ft | 336 kts | 31° |
| 2026-04-26 01:38 | 39.91459 | -74.90462 | 17087 ft | 336 kts | 32° |
| 2026-04-26 01:38 | 39.93192 | -74.88393 | 17079 ft | 340 kts | 44° |
| 2026-04-26 01:39 | 39.94754 | -74.86128 | 17023 ft | 341 kts | 45° |
| 2026-04-26 01:39 | 39.96363 | -74.83815 | 16098 ft | 347 kts | 45° |
| 2026-04-26 01:39 | 39.97994 | -74.81481 | 15153 ft | 348 kts | 45° |
| 2026-04-26 01:39 | 39.99636 | -74.79124 | 14337 ft | 344 kts | 45° |
| 2026-04-26 01:40 | 40.01220 | -74.76858 | 13520 ft | 340 kts | 46° |
| 2026-04-26 01:40 | 40.02807 | -74.74595 | 12662 ft | 336 kts | 45° |
| 2026-04-26 01:40 | 40.04360 | -74.72377 | 11847 ft | 330 kts | 45° |
| 2026-04-26 01:40 | 40.05905 | -74.70169 | 11110 ft | 325 kts | 45° |
| 2026-04-26 01:41 | 40.07401 | -74.68020 | 10689 ft | 315 kts | 45° |
| 2026-04-26 01:41 | 40.08860 | -74.65906 | 10253 ft | 312 kts | 45° |
| 2026-04-26 01:41 | 40.10298 | -74.63820 | 9923 ft | 309 kts | 45° |
| 2026-04-26 01:41 | 40.11756 | -74.61718 | 9702 ft | 313 kts | 45° |
| 2026-04-26 01:42 | 40.13223 | -74.59616 | 9454 ft | 313 kts | 45° |
| 2026-04-26 01:42 | 40.14685 | -74.57518 | 9219 ft | 312 kts | 45° |
| 2026-04-26 01:42 | 40.16120 | -74.55455 | 9063 ft | 299 kts | 45° |
| 2026-04-26 01:42 | 40.17484 | -74.53479 | 8940 ft | 286 kts | 45° |
| 2026-04-26 01:43 | 40.18786 | -74.51591 | 8800 ft | 272 kts | 45° |
| 2026-04-26 01:43 | 40.20007 | -74.49820 | 8667 ft | 253 kts | 45° |
| 2026-04-26 01:43 | 40.20937 | -74.47974 | 8538 ft | 237 kts | 70° |
| 2026-04-26 01:43 | 40.21186 | -74.45925 | 8422 ft | 224 kts | 98° |
| 2026-04-26 01:44 | 40.20785 | -74.44010 | 8340 ft | 215 kts | 124° |
| 2026-04-26 01:44 | 40.19881 | -74.42541 | 8330 ft | 203 kts | 148° |
| 2026-04-26 01:44 | 40.18695 | -74.41640 | 8330 ft | 193 kts | 169° |
| 2026-04-26 01:44 | 40.17408 | -74.41363 | 8333 ft | 184 kts | 189° |
| 2026-04-26 01:45 | 40.16184 | -74.41659 | 8330 ft | 176 kts | 207° |
| 2026-04-26 01:45 | 40.15136 | -74.42429 | 8328 ft | 171 kts | 224° |
| 2026-04-26 01:45 | 40.14282 | -74.43503 | 8329 ft | 170 kts | 230° |
| 2026-04-26 01:45 | 40.13485 | -74.44645 | 8326 ft | 170 kts | 231° |
| 2026-04-26 01:46 | 40.12695 | -74.45800 | 8329 ft | 170 kts | 231° |
| 2026-04-26 01:46 | 40.11905 | -74.46952 | 8323 ft | 170 kts | 231° |
| 2026-04-26 01:46 | 40.11113 | -74.48102 | 8317 ft | 170 kts | 231° |
| 2026-04-26 01:46 | 40.10322 | -74.49251 | 8320 ft | 170 kts | 231° |
| 2026-04-26 01:47 | 40.09590 | -74.50457 | 8312 ft | 169 kts | 240° |
| 2026-04-26 01:47 | 40.09115 | -74.51850 | 8309 ft | 168 kts | 254° |
| 2026-04-26 01:47 | 40.08984 | -74.53371 | 8316 ft | 170 kts | 270° |
| 2026-04-26 01:47 | 40.09233 | -74.54897 | 8316 ft | 175 kts | 287° |
| 2026-04-26 01:48 | 40.09863 | -74.56279 | 8316 ft | 181 kts | 303° |
| 2026-04-26 01:48 | 40.10847 | -74.57361 | 8321 ft | 190 kts | 323° |
| 2026-04-26 01:48 | 40.12122 | -74.57952 | 8323 ft | 200 kts | 344° |
| 2026-04-26 01:48 | 40.13541 | -74.57883 | 8320 ft | 210 kts | 7° |
| 2026-04-26 01:49 | 40.14891 | -74.57084 | 8324 ft | 219 kts | 33° |
| 2026-04-26 01:49 | 40.16014 | -74.55720 | 8332 ft | 222 kts | 44° |
| 2026-04-26 01:49 | 40.17062 | -74.54233 | 8328 ft | 222 kts | 46° |
| 2026-04-26 01:49 | 40.18088 | -74.52722 | 8320 ft | 222 kts | 46° |
| 2026-04-26 01:50 | 40.19110 | -74.51206 | 8318 ft | 222 kts | 46° |
| 2026-04-26 01:50 | 40.20139 | -74.49692 | 8323 ft | 223 kts | 45° |
| 2026-04-26 01:50 | 40.21341 | -74.48056 | 8176 ft | 282 kts | 42° |
| 2026-04-26 01:50 | 40.22818 | -74.46187 | 7922 ft | 302 kts | 41° |
| 2026-04-26 01:51 | 40.24354 | -74.44274 | 7689 ft | 306 kts | 41° |
| 2026-04-26 01:51 | 40.25898 | -74.42348 | 7465 ft | 307 kts | 42° |
| 2026-04-26 01:51 | 40.27439 | -74.40417 | 7232 ft | 306 kts | 42° |
| 2026-04-26 01:51 | 40.28973 | -74.38483 | 7007 ft | 307 kts | 43° |
| 2026-04-26 01:52 | 40.30510 | -74.36539 | 6772 ft | 307 kts | 43° |
| 2026-04-26 01:52 | 40.32044 | -74.34598 | 6540 ft | 306 kts | 44° |
| 2026-04-26 01:52 | 40.33571 | -74.32661 | 6291 ft | 306 kts | 44° |
| 2026-04-26 01:52 | 40.35091 | -74.30731 | 6128 ft | 303 kts | 45° |
| 2026-04-26 01:53 | 40.36605 | -74.28810 | 6107 ft | 302 kts | 45° |
| 2026-04-26 01:53 | 40.38114 | -74.26898 | 6115 ft | 301 kts | 45° |
| 2026-04-26 01:53 | 40.39645 | -74.24961 | 6133 ft | 302 kts | 45° |
| 2026-04-26 01:53 | 40.41155 | -74.23048 | 5942 ft | 301 kts | 45° |
| 2026-04-26 01:54 | 40.42636 | -74.21167 | 5376 ft | 299 kts | 46° |
| 2026-04-26 01:54 | 40.44116 | -74.19283 | 4674 ft | 293 kts | 48° |
| 2026-04-26 01:54 | 40.45548 | -74.17463 | 4093 ft | 280 kts | 49° |
| 2026-04-26 01:54 | 40.46913 | -74.15726 | 3759 ft | 267 kts | 48° |
| 2026-04-26 01:55 | 40.48213 | -74.14072 | 3547 ft | 254 kts | 49° |
| 2026-04-26 01:55 | 40.49479 | -74.12457 | 3420 ft | 253 kts | 49° |
| 2026-04-26 01:55 | 40.50730 | -74.10859 | 3288 ft | 250 kts | 49° |
| 2026-04-26 01:55 | 40.52001 | -74.09331 | 3154 ft | 242 kts | 41° |
| 2026-04-26 01:56 | 40.53363 | -74.08151 | 3023 ft | 227 kts | 37° |
| 2026-04-26 01:56 | 40.54656 | -74.07067 | 2891 ft | 214 kts | 37° |
| 2026-04-26 01:56 | 40.55874 | -74.06037 | 2770 ft | 203 kts | 38° |
| 2026-04-26 01:56 | 40.57037 | -74.05047 | 2640 ft | 195 kts | 39° |
| 2026-04-26 01:57 | 40.58144 | -74.04104 | 2544 ft | 183 kts | 38° |
| 2026-04-26 01:57 | 40.59190 | -74.03218 | 2402 ft | 170 kts | 39° |
| 2026-04-26 01:57 | 40.59898 | -74.02611 | 2284 ft | 162 kts | 41° |
| 2026-04-26 01:57 | 40.60739 | -74.01820 | 2207 ft | 151 kts | 40° |
| 2026-04-26 01:58 | 40.61564 | -74.01102 | 2167 ft | 133 kts | 40° |
| 2026-04-26 01:58 | 40.62294 | -74.00485 | 2168 ft | 119 kts | 41° |
| 2026-04-26 01:58 | 40.62953 | -73.99935 | 2166 ft | 108 kts | 40° |
| 2026-04-26 01:58 | 40.63579 | -73.99414 | 2165 ft | 106 kts | 42° |
| 2026-04-26 01:59 | 40.64196 | -73.98903 | 2169 ft | 104 kts | 41° |
| 2026-04-26 01:59 | 40.64810 | -73.98395 | 2171 ft | 104 kts | 41° |
| 2026-04-26 01:59 | 40.65423 | -73.97888 | 2158 ft | 105 kts | 41° |
| 2026-04-26 01:59 | 40.66043 | -73.97378 | 2164 ft | 105 kts | 41° |
| 2026-04-26 02:00 | 40.66660 | -73.96869 | 2164 ft | 104 kts | 41° |
| 2026-04-26 02:00 | 40.67275 | -73.96363 | 2162 ft | 104 kts | 40° |
| 2026-04-26 02:00 | 40.67892 | -73.95855 | 2153 ft | 106 kts | 41° |
| 2026-04-26 02:00 | 40.68514 | -73.95342 | 2087 ft | 105 kts | 41° |
| 2026-04-26 02:01 | 40.69135 | -73.94831 | 1983 ft | 104 kts | 40° |
| 2026-04-26 02:01 | 40.69757 | -73.94319 | 1848 ft | 106 kts | 39° |
| 2026-04-26 02:01 | 40.70379 | -73.93807 | 1714 ft | 105 kts | 40° |
| 2026-04-26 02:01 | 40.71001 | -73.93294 | 1567 ft | 106 kts | 39° |
| 2026-04-26 02:02 | 40.71611 | -73.92791 | 1417 ft | 106 kts | 38° |
| 2026-04-26 02:02 | 40.72250 | -73.92264 | 1261 ft | 105 kts | 38° |
| 2026-04-26 02:02 | 40.72870 | -73.91753 | 1100 ft | 105 kts | 38° |
| 2026-04-26 02:02 | 40.73487 | -73.91244 | 942 ft | 104 kts | 38° |
| 2026-04-26 02:03 | 40.74105 | -73.90735 | 788 ft | 105 kts | 37° |
| 2026-04-26 02:03 | 40.74723 | -73.90221 | 616 ft | 105 kts | 36° |
| 2026-04-26 02:03 | 40.75334 | -73.89709 | 451 ft | 104 kts | 33° |
| 2026-04-26 02:03 | 40.75936 | -73.89206 | 344 ft | 102 kts | 34° |
| 2026-04-26 02:04 | 40.76542 | -73.88692 | 172 ft | 102 kts | 36° |
| 2026-04-26 02:04 | 40.77132 | -73.88209 | 43 ft | 95 kts | 26° |
| 2026-04-26 02:04 | 40.77533 | -73.87910 | 22 ft | 26 kts | 29° |
| 2026-04-26 02:04 | 40.77646 | -73.87794 | 21 ft | 19 kts | 53° |
| 2026-04-26 02:05 | 40.77714 | -73.87648 | 21 ft | 18 kts | 59° |
| 2026-04-26 02:05 | 40.77793 | -73.87513 | 23 ft | 19 kts | 51° |
| 2026-04-26 02:05 | 40.77835 | -73.87357 | 22 ft | 19 kts | 86° |
| 2026-04-26 02:05 | 40.77810 | -73.87218 | 21 ft | 16 kts | 115° |
| 2026-04-26 02:06 | 40.77753 | -73.87087 | 20 ft | 17 kts | 121° |
| 2026-04-26 02:06 | 40.77662 | -73.86988 | 20 ft | 18 kts | 167° |
| 2026-04-26 02:06 | 40.77550 | -73.86941 | 21 ft | 15 kts | 178° |
| 2026-04-26 02:06 | 40.77506 | -73.86927 | 21 ft | 0 kts | 168° |